Time;durP1;ratioP1;P1;durP2;ratioP2;P2;SDS_P1;SDS_P2;PMS_P1;PMS_P2;Temp;Humidity;BMP_temperature;BMP_pressure;BME280_temperature;BME280_humidity;BME280_pressure;Samples;Min_cycle;Max_cycle;Signal;HPM_P1;HPM_P2
2024/04/23 00:05:00;;;;;;;5.07;1.25;;;;;;;25.06;25.38;100891.09;11131678;26;20015;-86
2024/04/23 00:10:25;;;;;;;5.13;1.30;;;;;;;25.19;26.88;100878.81;11121954;26;20017;-88
2024/04/23 00:15:50;;;;;;;10.45;2.40;;;;;;;25.13;30.02;100873.66;11106009;26;20329;-88
2024/04/23 00:21:17;;;;;;;9.95;2.38;;;;;;;25.07;31.99;100871.22;11107050;26;20008;-88
2024/04/23 00:26:42;;;;;;;6.45;2.70;;;;;;;24.94;33.15;100870.84;11128504;26;20028;-88
2024/04/23 00:32:07;;;;;;;8.45;2.20;;;;;;;24.85;34.29;100855.00;11105955;26;20005;-87
2024/04/23 00:37:34;;;;;;;6.25;2.45;;;;;;;24.78;35.12;100848.09;11104279;26;20008;-87
2024/04/23 00:42:59;;;;;;;6.60;2.17;;;;;;;24.72;35.29;100840.25;11122167;26;20008;-86
2024/04/23 00:48:23;;;;;;;5.75;1.98;;;;;;;24.70;35.86;100816.94;11130273;26;20008;-86
2024/04/23 00:53:50;;;;;;;6.30;2.50;;;;;;;24.69;36.06;100816.06;11078963;26;20047;-87
2024/04/23 00:59:15;;;;;;;5.15;2.00;;;;;;;24.71;36.21;100802.50;11121228;26;20082;-86
2024/04/23 01:04:41;;;;;;;9.43;2.58;;;;;;;24.62;36.88;100801.94;11128638;26;20014;-85
2024/04/23 01:10:09;;;;;;;6.40;2.38;;;;;;;24.54;37.82;100801.41;11089741;26;20573;-85
2024/04/23 01:15:34;;;;;;;8.23;2.47;;;;;;;24.44;38.58;100818.91;11106549;26;20082;-86
2024/04/23 01:21:02;;;;;;;7.93;2.20;;;;;;;24.38;39.03;100819.16;11128103;26;20011;-86
2024/04/23 01:26:31;;;;;;;9.98;2.03;;;;;;;24.25;40.91;100828.69;11067922;26;20040;-86
2024/04/23 01:31:56;;;;;;;9.98;2.92;;;;;;;24.17;40.44;100823.53;11128386;26;20015;-86
2024/04/23 01:37:21;;;;;;;10.32;2.38;;;;;;;24.05;41.99;100828.53;11124840;26;20001;-85
2024/04/23 01:42:51;;;;;;;12.63;2.67;;;;;;;23.88;43.16;100823.81;11128661;26;20000;-85
2024/04/23 01:48:15;;;;;;;13.25;3.38;;;;;;;23.90;42.07;100812.94;11126986;26;20024;-85
2024/04/23 01:53:40;;;;;;;14.63;3.10;;;;;;;24.01;42.03;100813.44;11102903;26;20005;-85
2024/04/23 01:59:07;;;;;;;8.40;2.90;;;;;;;24.11;42.17;100809.41;11121235;26;20043;-86
2024/04/23 02:04:32;;;;;;;10.77;2.85;;;;;;;24.20;42.27;100787.53;11116385;26;20063;-86
2024/04/23 02:09:57;;;;;;;9.93;2.47;;;;;;;24.25;42.18;100796.31;11126930;26;20430;-86
2024/04/23 02:15:24;;;;;;;9.75;3.33;;;;;;;24.28;42.59;100773.72;11110738;26;20019;-86
2024/04/23 02:20:50;;;;;;;10.10;3.03;;;;;;;24.25;42.70;100774.72;11090472;26;20004;-88
2024/04/23 02:26:15;;;;;;;11.03;2.83;;;;;;;24.29;42.89;100768.25;11087180;26;20004;-87
2024/04/23 02:31:44;;;;;;;13.27;3.30;;;;;;;24.27;42.63;100755.78;11102279;26;20067;-86
2024/04/23 02:37:09;;;;;;;12.38;2.95;;;;;;;24.26;42.67;100767.50;11095438;26;20452;-87
2024/04/23 02:42:33;;;;;;;36.80;3.65;;;;;;;24.29;42.88;100756.56;11125893;26;20097;-86
2024/04/23 02:48:00;;;;;;;11.20;3.20;;;;;;;24.28;42.55;100747.63;11099266;26;19997;-86
2024/04/23 02:53:24;;;;;;;9.88;2.90;;;;;;;24.30;42.23;100725.94;11125203;26;20016;-85
2024/04/23 02:58:48;;;;;;;13.25;3.72;;;;;;;24.38;41.85;100726.50;11094853;26;20000;-87
2024/04/23 03:04:17;;;;;;;6.22;2.60;;;;;;;24.32;41.77;100735.75;11124383;26;20015;-86
2024/04/23 03:09:41;;;;;;;;;;;;;;;24.36;41.52;100706.78;11107990;26;20026;-86
2024/04/23 03:15:05;;;;;;;13.35;2.53;;;;;;;24.35;41.15;100713.16;11093937;26;19925;-85
2024/04/23 03:20:32;;;;;;;13.57;3.25;;;;;;;24.40;41.22;100705.75;11092097;26;20051;-87
2024/04/23 03:25:56;;;;;;;12.87;2.63;;;;;;;24.46;40.84;100714.47;11121726;26;20526;-87
2024/04/23 03:31:20;;;;;;;13.80;3.33;;;;;;;24.50;40.82;100724.16;11095216;26;20046;-86
2024/04/23 03:36:47;;;;;;;8.93;2.53;;;;;;;24.51;40.72;100708.84;11115937;26;20004;-85
2024/04/23 03:42:11;;;;;;;11.05;2.78;;;;;;;24.49;40.69;100717.00;11109180;26;20034;-86
2024/04/23 03:47:35;;;;;;;10.55;2.60;;;;;;;24.53;40.20;100725.88;11123843;26;20340;-85
2024/04/23 03:53:01;;;;;;;12.60;2.63;;;;;;;24.58;39.99;100724.72;11089898;26;20019;-85
2024/04/23 03:58:25;;;;;;;8.80;3.47;;;;;;;24.63;39.80;100735.31;11099040;26;20000;-85
2024/04/23 04:09:32;;;;;;;7.65;2.60;;;;;;;24.71;40.34;100740.41;11081396;26;20012;-85
2024/04/23 04:14:57;;;;;;;9.00;2.57;;;;;;;24.73;39.96;100755.59;11096557;26;20004;-87
2024/04/23 04:20:22;;;;;;;14.30;3.03;;;;;;;24.72;40.27;100767.34;11150805;26;20004;-85
2024/04/23 04:25:49;;;;;;;11.82;3.95;;;;;;;24.77;40.27;100762.63;11108599;26;20078;-86
2024/04/23 04:31:15;;;;;;;8.40;3.30;;;;;;;24.77;40.43;100778.81;11104597;26;20016;-84
2024/04/23 04:36:39;;;;;;;9.43;3.63;;;;;;;24.84;40.08;100774.03;11129859;26;20003;-86
2024/04/23 04:42:06;;;;;;;14.77;3.05;;;;;;;24.86;39.98;100773.03;11111600;26;20001;-85
2024/04/23 04:47:30;;;;;;;11.13;2.57;;;;;;;24.83;40.27;100765.03;11126317;26;20330;-85
2024/04/23 04:52:55;;;;;;;9.48;2.80;;;;;;;24.87;39.71;100752.31;11100877;26;20004;-86
2024/04/23 04:58:22;;;;;;;7.55;2.92;;;;;;;25.09;38.76;100741.44;11110081;26;20081;-84
2024/04/23 05:03:46;;;;;;;11.38;2.80;;;;;;;25.21;37.68;100735.47;11127238;26;20011;-86
2024/04/23 05:09:10;;;;;;;7.38;2.20;;;;;;;25.28;37.79;100724.34;11104248;26;20004;-85
2024/04/23 05:14:36;;;;;;;8.52;1.80;;;;;;;25.35;37.44;100706.00;11160305;26;20030;-86
2024/04/23 05:20:00;;;;;;;7.13;1.90;;;;;;;25.38;36.95;100709.47;11129825;26;20731;-85
2024/04/23 05:25:25;;;;;;;9.48;2.15;;;;;;;25.40;36.82;100704.00;11124004;26;20460;-87
2024/04/23 05:36:31;;;;;;;5.40;1.65;;;;;;;25.52;36.51;100699.84;11132486;26;20000;-86
2024/04/23 05:41:56;;;;;;;6.80;1.85;;;;;;;25.62;36.08;100707.44;11103392;26;20011;-85
2024/04/23 05:47:22;;;;;;;4.70;1.40;;;;;;;25.73;36.52;100720.50;11111940;26;20801;-86
2024/04/23 05:53:25;;;;;;;6.28;1.73;;;;;;;25.93;35.77;100725.78;11103356;26;20023;-85
2024/04/23 05:59:08;;;;;;;8.38;1.88;;;;;;;26.26;36.03;100719.69;11123354;26;20443;-87
2024/04/23 06:04:34;;;;;;;5.60;1.40;;;;;;;26.66;36.11;100740.22;11112374;26;20014;-86
2024/04/23 06:09:58;;;;;;;4.93;1.70;;;;;;;26.72;36.04;100731.78;11125866;26;20067;-85
2024/04/23 06:15:22;;;;;;;7.88;1.23;;;;;;;26.65;35.77;100747.47;11123362;26;20004;-84
2024/04/23 06:20:49;;;;;;;7.30;1.80;;;;;;;26.61;36.54;100748.59;11123180;26;20254;-87
2024/04/23 06:26:13;;;;;;;9.03;2.93;;;;;;;26.58;36.18;100744.22;11119941;26;20000;-84
2024/04/23 06:31:38;;;;;;;8.60;1.88;;;;;;;26.63;36.54;100726.88;11124254;26;20234;-84
2024/04/23 06:37:04;;;;;;;10.75;1.73;;;;;;;26.59;37.22;100739.66;11119645;26;20050;-84
2024/04/23 06:42:29;;;;;;;5.87;1.87;;;;;;;26.66;37.33;100715.84;11141021;26;20036;-85
2024/04/23 06:47:52;;;;;;;5.20;1.70;;;;;;;26.65;37.33;100717.69;11128264;26;20291;-84
2024/04/23 06:53:19;;;;;;;13.45;2.38;;;;;;;26.69;37.37;100729.25;11111609;26;20000;-83
2024/04/23 06:58:46;;;;;;;4.43;1.27;;;;;;;26.69;36.99;100734.66;11136897;26;20082;-91
2024/04/23 07:04:10;;;;;;;8.48;1.45;;;;;;;26.68;36.57;100741.91;11113172;26;20340;-80
2024/04/23 07:09:38;;;;;;;4.95;1.33;;;;;;;26.72;35.72;100729.94;11126994;26;20432;-90
2024/04/23 07:15:02;;;;;;;8.55;1.35;;;;;;;26.73;35.55;100731.72;11108094;26;19996;-84
2024/04/23 07:20:26;;;;;;;13.40;1.67;;;;;;;26.71;35.36;100728.22;11083443;26;20608;-86
2024/04/23 07:25:56;;;;;;;4.72;1.42;;;;;;;26.71;35.62;100703.84;11122138;26;20012;-87
2024/04/23 07:31:21;;;;;;;11.10;1.77;;;;;;;26.71;35.40;100701.13;11100391;26;20012;-85
2024/04/23 07:36:45;;;;;;;6.88;1.40;;;;;;;26.75;35.74;100704.56;11123063;26;20019;-87
2024/04/23 07:42:12;;;;;;;6.00;1.50;;;;;;;26.85;36.09;100705.81;11101566;26;20054;-88
2024/04/23 07:47:38;;;;;;;10.15;1.73;;;;;;;26.96;35.52;100704.34;11106039;26;20004;-87
2024/04/23 07:53:06;;;;;;;5.88;1.98;;;;;;;27.27;35.31;100708.09;11060089;26;20478;-86
2024/04/23 07:58:33;;;;;;;7.45;1.83;;;;;;;27.58;35.79;100702.75;11108570;26;20459;-85
2024/04/23 08:03:57;;;;;;;;;;;;;;;27.68;36.09;100701.31;11132191;26;20083;-86
2024/04/23 08:09:21;;;;;;;12.57;1.40;;;;;;;27.50;36.49;100698.72;11119786;26;19926;-87
2024/04/23 08:14:48;;;;;;;6.93;1.30;;;;;;;27.30;37.33;100700.69;11130111;26;20011;-85
2024/04/23 08:20:15;;;;;;;5.65;1.45;;;;;;;27.16;36.85;100705.09;11083138;26;20030;-85
2024/04/23 08:25:39;;;;;;;8.50;2.20;;;;;;;27.06;37.75;100693.88;11131567;26;20012;-86
2024/04/23 08:31:09;;;;;;;7.78;1.50;;;;;;;26.98;37.91;100703.38;11132064;26;20000;-87
2024/04/23 08:36:34;;;;;;;5.15;1.70;;;;;;;26.96;37.81;100700.75;11130662;26;19996;-87
2024/04/23 08:42:00;;;;;;;7.57;1.48;;;;;;;26.98;37.67;100685.25;11131006;26;20011;-85
2024/04/23 08:47:27;;;;;;;6.25;1.55;;;;;;;27.09;36.96;100701.84;11131467;26;20139;-87
2024/04/23 08:52:52;;;;;;;10.25;1.70;;;;;;;27.21;37.26;100682.22;11106551;26;20040;-86
2024/04/23 08:58:20;;;;;;;10.40;2.10;;;;;;;27.33;36.93;100678.81;11102778;26;20028;-87
2024/04/23 09:03:50;;;;;;;13.05;1.92;;;;;;;27.50;36.35;100641.75;11077052;26;19997;-84
2024/04/23 09:09:15;;;;;;;6.15;1.77;;;;;;;27.87;35.15;100646.84;11092456;26;20061;-86
2024/04/23 09:14:43;;;;;;;5.20;1.55;;;;;;;28.22;32.47;100643.97;11117373;26;20016;-84
2024/04/23 09:20:16;;;;;;;9.80;2.05;;;;;;;28.72;30.46;100646.31;11119147;26;20024;-84
2024/04/23 09:25:40;;;;;;;9.57;2.33;;;;;;;28.95;29.98;100637.63;11096731;26;20004;-87
2024/04/23 09:31:05;;;;;;;13.82;2.35;;;;;;;29.17;30.09;100627.16;11098306;26;20016;-89
2024/04/23 09:36:33;;;;;;;11.70;1.70;;;;;;;29.36;30.91;100634.16;11094758;26;20011;-83
2024/04/23 09:41:57;;;;;;;15.43;1.90;;;;;;;29.78;29.19;100609.59;11077324;26;20050;-83
2024/04/23 09:47:21;;;;;;;11.30;2.05;;;;;;;30.45;27.17;100588.69;11064285;26;20054;-87
2024/04/23 09:52:49;;;;;;;17.30;2.40;;;;;;;31.02;26.72;100596.47;11126195;26;20089;-84
2024/04/23 09:58:13;;;;;;;13.68;2.15;;;;;;;31.08;25.82;100577.84;11121594;26;20000;-85
2024/04/23 10:03:41;;;;;;;11.75;1.92;;;;;;;31.10;25.20;100584.06;11126326;26;20058;-86
2024/04/23 10:09:14;;;;;;;10.77;2.47;;;;;;;31.10;24.42;100585.94;11101987;26;20073;-85
2024/04/23 10:14:45;;;;;;;14.82;2.40;;;;;;;31.19;23.70;100561.56;11126543;26;20012;-87
2024/04/23 10:20:10;;;;;;;11.45;2.42;;;;;;;31.12;24.35;100583.94;11128403;26;20078;-87
2024/04/23 10:25:38;;;;;;;10.27;2.03;;;;;;;30.84;25.36;100583.19;11116622;26;20004;-86
2024/04/23 10:31:02;;;;;;;11.10;2.42;;;;;;;30.62;25.37;100561.16;11126462;26;20004;-86
2024/04/23 10:36:27;;;;;;;11.95;2.22;;;;;;;30.60;24.98;100562.22;11102748;26;20001;-85
2024/04/23 10:41:55;;;;;;;13.00;1.77;;;;;;;30.56;25.42;100560.72;11116932;26;20004;-86
2024/04/23 10:47:20;;;;;;;14.18;2.40;;;;;;;30.67;25.35;100560.81;11079274;26;20012;-85
2024/04/23 10:52:44;;;;;;;13.05;2.45;;;;;;;30.94;24.74;100544.34;11092468;26;20032;-85
2024/04/23 10:58:11;;;;;;;14.02;3.22;;;;;;;31.31;23.86;100548.03;11084547;26;20470;-94
2024/04/23 11:03:38;;;;;;;8.43;2.40;;;;;;;31.83;23.45;100542.28;11065710;26;20468;-90
2024/04/23 11:09:17;;;;;;;16.83;2.70;;;;;;;32.02;23.34;100553.53;11067449;26;20041;-87
2024/04/23 11:14:43;;;;;;;10.85;2.58;;;;;;;31.76;23.39;100555.53;11114151;26;20012;-89
2024/04/23 11:20:10;;;;;;;13.35;2.33;;;;;;;31.54;23.78;100567.16;11110874;26;20399;-91
2024/04/23 11:25:36;;;;;;;12.32;2.53;;;;;;;31.39;24.40;100565.53;11091148;26;20007;-84
2024/04/23 11:31:04;;;;;;;12.23;1.83;;;;;;;31.21;25.06;100570.50;11086555;26;20082;-95
2024/04/23 11:36:28;;;;;;;11.43;2.08;;;;;;;31.20;25.59;100568.75;11097077;26;20046;-86
2024/04/23 11:41:54;;;;;;;10.10;2.22;;;;;;;31.23;26.23;100586.78;11114954;26;20329;-86
2024/04/23 11:47:22;;;;;;;16.58;2.03;;;;;;;31.42;26.88;100592.63;11086656;26;20024;-88
2024/04/23 11:52:46;;;;;;;18.00;2.85;;;;;;;31.46;26.38;100588.66;11115871;26;20427;-86
2024/04/23 11:58:10;;;;;;;15.65;3.08;;;;;;;31.64;27.16;100584.59;11115685;26;20001;-81
2024/04/23 12:03:37;;;;;;;11.98;2.75;;;;;;;31.78;27.91;100597.22;11107511;26;20007;-80
2024/04/23 12:09:01;;;;;;;14.68;2.47;;;;;;;31.81;27.43;100601.59;11079938;26;20000;-92
2024/04/23 12:14:28;;;;;;;9.35;2.30;;;;;;;31.95;27.63;100601.41;11063315;26;20004;-83
2024/04/23 12:19:55;;;;;;;;;;;;;;;32.04;27.89;100604.31;11103458;26;20037;-87
2024/04/23 12:25:19;;;;;;;;;;;;;;;32.16;27.52;100610.75;11077995;26;19932;-85
2024/04/23 12:30:44;;;;;;;17.10;3.25;;;;;;;32.00;27.95;100637.44;11090441;26;20371;-86
2024/04/23 12:36:13;;;;;;;15.70;3.72;;;;;;;31.88;27.91;100630.19;11120870;26;20477;-89
2024/04/23 12:41:38;;;;;;;18.42;3.30;;;;;;;31.68;28.08;100626.22;11115486;26;20018;-89
2024/04/23 12:47:03;;;;;;;19.02;3.45;;;;;;;31.56;29.03;100625.25;11099600;26;20016;-88
2024/04/23 12:52:29;;;;;;;20.45;2.92;;;;;;;31.47;29.55;100595.88;11118521;26;20032;-93
2024/04/23 12:57:53;;;;;;;16.52;3.10;;;;;;;31.17;29.24;100582.66;11109392;26;20013;-89
2024/04/23 13:03:17;;;;;;;15.82;3.30;;;;;;;31.11;29.85;100554.94;11069650;26;20037;-88
2024/04/23 13:08:45;;;;;;;15.93;3.10;;;;;;;30.94;30.11;100536.16;11090707;26;20015;-85
2024/04/23 13:14:09;;;;;;;27.85;4.00;;;;;;;30.91;30.04;100520.91;11068531;26;20519;-89
2024/04/23 13:19:34;;;;;;;24.83;4.22;;;;;;;31.10;29.76;100498.63;11125350;26;20004;-87
2024/04/23 13:25:01;;;;;;;18.15;3.55;;;;;;;31.29;28.79;100499.00;11103423;26;20048;-83
2024/04/23 13:30:26;;;;;;;21.10;3.95;;;;;;;31.31;29.01;100493.44;11122470;26;20022;-83
2024/04/23 13:35:50;;;;;;;14.80;3.47;;;;;;;31.37;28.90;100476.59;11141302;26;20019;-87
2024/04/23 13:41:19;;;;;;;22.92;3.50;;;;;;;31.31;28.20;100479.81;11110964;26;20019;-87
2024/04/23 13:46:43;;;;;;;10.68;2.72;;;;;;;31.34;28.02;100457.72;11159280;26;20004;-85
2024/04/23 13:52:08;;;;;;;21.23;2.55;;;;;;;31.19;27.77;100487.03;11126127;26;20010;-82
2024/04/23 13:57:36;;;;;;;15.63;3.47;;;;;;;31.14;27.24;100481.91;11107733;26;20012;-84
2024/04/23 14:03:01;;;;;;;25.33;3.38;;;;;;;31.13;26.28;100491.09;11108544;26;20015;-88
2024/04/23 14:08:26;;;;;;;21.58;2.92;;;;;;;31.13;25.99;100468.38;11127484;26;20396;-87
2024/04/23 14:13:53;;;;;;;16.75;3.78;;;;;;;31.09;26.75;100450.53;11097225;26;20001;-85
2024/04/23 14:19:23;;;;;;;23.63;4.38;;;;;;;31.01;25.95;100433.81;11077805;26;20000;-83
2024/04/23 14:24:47;;;;;;;34.38;4.43;;;;;;;31.01;26.17;100429.22;11074963;26;20361;-83
2024/04/23 14:30:15;;;;;;;26.08;5.13;;;;;;;30.91;25.75;100440.94;11059728;26;20007;-82
2024/04/23 14:35:40;;;;;;;25.42;5.43;;;;;;;30.92;25.88;100442.69;11095055;26;20004;-87
2024/04/23 14:41:06;;;;;;;39.70;7.07;;;;;;;30.99;24.82;100466.66;11092407;26;20344;-82
2024/04/23 14:46:34;;;;;;;41.50;7.27;;;;;;;30.86;25.40;100454.91;11108714;26;20459;-83
2024/04/23 14:52:02;;;;;;;31.08;6.82;;;;;;;30.76;25.55;100470.22;11125476;26;20142;-81
2024/04/23 14:57:26;;;;;;;38.58;6.55;;;;;;;30.65;25.30;100472.84;11107844;26;20082;-83
2024/04/23 15:02:54;;;;;;;45.28;8.02;;;;;;;30.54;25.41;100503.59;11085362;26;20004;-87
2024/04/23 15:08:18;;;;;;;38.15;5.93;;;;;;;30.39;24.34;100478.25;11068585;26;20088;-87
2024/04/23 15:13:42;;;;;;;44.80;8.45;;;;;;;30.37;24.57;100471.19;11033461;26;19997;-93
2024/04/23 15:19:16;;;;;;;41.20;6.45;;;;;;;30.31;24.46;100461.63;11087394;26;20041;-92
2024/04/23 15:24:40;;;;;;;38.70;6.78;;;;;;;30.24;25.11;100453.97;11040188;26;20008;-90
2024/04/23 15:30:05;;;;;;;37.45;6.22;;;;;;;30.15;25.54;100457.34;11120858;26;20000;-86
2024/04/23 15:35:34;;;;;;;39.90;6.30;;;;;;;30.08;25.52;100440.56;11046890;26;20077;-85
2024/04/23 15:41:04;;;;;;;34.15;5.18;;;;;;;30.01;25.89;100406.56;11090672;26;20012;-89
2024/04/23 15:46:28;;;;;;;34.50;5.57;;;;;;;29.92;26.40;100372.72;11082532;26;20012;-91
2024/04/23 15:51:55;;;;;;;36.55;6.30;;;;;;;29.77;27.27;100389.22;11097848;26;20366;-92
2024/04/23 15:57:19;;;;;;;37.63;6.75;;;;;;;29.65;27.72;100363.75;11062364;26;20032;-86
2024/04/23 16:02:43;;;;;;;33.58;6.93;;;;;;;29.54;27.84;100345.41;11091534;26;20000;-93
2024/04/23 16:08:10;;;;;;;28.33;5.93;;;;;;;29.33;28.12;100349.63;11136977;26;20016;-89
2024/04/23 16:13:34;;;;;;;39.75;7.22;;;;;;;29.15;27.95;100331.81;11122976;26;20090;-92
2024/04/23 16:18:58;;;;;;;38.80;7.68;;;;;;;29.02;27.43;100284.69;11159246;26;20027;-96
2024/04/23 16:24:25;;;;;;;34.30;7.22;;;;;;;29.28;27.14;100278.31;11159034;26;20011;-88
2024/04/23 16:29:49;;;;;;;48.88;6.95;;;;;;;29.39;25.18;100213.22;11106962;26;20031;-88
2024/04/23 16:35:13;;;;;;;48.65;7.95;;;;;;;29.90;23.85;100214.00;11064012;26;20004;-91
2024/04/23 16:40:40;;;;;;;48.75;7.72;;;;;;;30.30;22.82;100244.66;11072235;26;20027;-88
2024/04/23 16:46:05;;;;;;;54.22;6.63;;;;;;;30.29;24.47;100274.72;11081403;26;20027;-91
2024/04/23 16:51:29;;;;;;;46.42;6.95;;;;;;;29.99;25.43;100261.53;11124552;26;20000;-91
2024/04/23 16:56:56;;;;;;;29.73;5.82;;;;;;;29.66;26.93;100290.16;11091687;26;20011;-85
2024/04/23 17:02:20;;;;;;;37.67;6.35;;;;;;;29.63;25.32;100286.75;11074820;26;20001;-90
2024/04/23 17:07:44;;;;;;;41.60;6.53;;;;;;;29.42;25.99;100307.31;11113311;26;20036;-89
2024/04/23 17:13:11;;;;;;;35.60;5.57;;;;;;;29.68;26.62;100273.69;11085872;26;20011;-91
2024/04/23 17:18:35;;;;;;;33.22;5.53;;;;;;;29.59;25.28;100307.03;11109499;26;20016;-87
2024/04/23 17:23:59;;;;;;;33.92;6.45;;;;;;;29.94;24.49;100229.16;11072767;26;20336;-94
2024/04/23 17:29:26;;;;;;;40.53;7.53;;;;;;;29.97;24.73;100231.69;11095168;26;20024;-85
2024/04/23 17:34:50;;;;;;;35.20;5.50;;;;;;;30.22;22.45;100186.28;11107297;26;20024;-94
2024/04/23 17:40:15;;;;;;;42.17;7.18;;;;;;;30.42;22.90;100174.75;11100551;26;20064;-86
2024/04/23 17:45:43;;;;;;;41.38;7.13;;;;;;;30.47;23.15;100148.00;11072389;26;20012;-84
2024/04/23 17:51:08;;;;;;;40.55;7.72;;;;;;;30.38;24.34;100126.94;11119002;26;20551;-88
2024/04/23 17:56:33;;;;;;;33.03;6.53;;;;;;;30.22;24.04;100159.03;11075578;26;20005;-85
2024/04/23 18:02:00;;;;;;;43.92;6.90;;;;;;;30.03;24.59;100156.81;11101883;26;20001;-86
2024/04/23 18:07:25;;;;;;;28.02;7.30;;;;;;;30.04;24.95;100140.38;11101498;26;20079;-86
2024/04/23 18:12:49;;;;;;;38.42;6.55;;;;;;;29.98;24.35;100058.28;11125135;26;20036;-86
2024/04/23 18:18:18;;;;;;;34.85;6.43;;;;;;;30.47;22.65;100056.22;11139556;26;20012;-84
2024/04/23 18:23:43;;;;;;;63.58;12.07;;;;;;;30.88;21.86;100046.69;11077215;26;20032;-90
2024/04/23 18:29:07;;;;;;;51.42;8.50;;;;;;;31.06;21.12;100143.41;11110319;26;20043;-90
2024/04/23 18:34:36;;;;;;;52.78;7.50;;;;;;;31.43;20.88;100107.72;11145963;26;20000;-90
2024/04/23 18:40:01;;;;;;;49.42;7.82;;;;;;;31.53;20.25;100079.53;11112917;26;20040;-89
2024/04/23 18:45:27;;;;;;;41.10;6.35;;;;;;;31.82;19.68;100085.34;11108881;26;20479;-84
2024/04/23 18:50:55;;;;;;;51.80;9.55;;;;;;;31.78;20.29;100140.31;11107650;26;20008;-83
2024/04/23 18:56:19;;;;;;;50.88;8.18;;;;;;;31.46;21.67;100205.69;11076463;26;20008;-87
2024/04/23 19:01:43;;;;;;;40.55;6.70;;;;;;;31.28;21.96;100216.22;11095890;26;20004;-79
2024/04/23 19:07:10;;;;;;;41.95;7.63;;;;;;;31.38;21.40;100151.72;11078306;26;20082;-83
2024/04/23 19:12:34;;;;;;;46.78;7.45;;;;;;;31.58;21.57;100208.31;11056528;26;20070;-85
2024/04/23 19:17:59;;;;;;;40.85;6.22;;;;;;;31.59;21.65;100171.88;11075783;26;20000;-81
2024/04/23 19:23:26;;;;;;;30.23;6.13;;;;;;;31.51;21.56;100174.31;11062440;26;20012;-88
2024/04/23 19:28:51;;;;;;;37.00;6.80;;;;;;;31.64;21.39;100177.81;11062235;26;20028;-86
2024/04/23 19:34:16;;;;;;;43.00;6.65;;;;;;;31.64;21.83;100217.91;11125182;26;20022;-86
2024/04/23 19:39:44;;;;;;;46.25;6.13;;;;;;;31.51;22.40;100198.00;11051289;26;20001;-86
2024/04/23 19:45:09;;;;;;;62.30;8.90;;;;;;;31.26;23.01;100180.00;11060867;26;20472;-88
2024/04/23 19:50:34;;;;;;;41.47;7.82;;;;;;;31.31;23.15;100207.78;11134330;26;20034;-93
2024/04/23 19:56:03;;;;;;;46.50;7.85;;;;;;;31.27;23.50;100204.44;11116670;26;20007;-92
2024/04/23 20:01:28;;;;;;;35.60;6.65;;;;;;;31.23;23.87;100249.34;11174474;26;19999;-94
2024/04/23 20:06:52;;;;;;;48.33;7.97;;;;;;;31.05;24.12;100215.28;11123909;26;20007;-93
2024/04/23 20:12:18;;;;;;;42.28;7.07;;;;;;;30.87;24.84;100228.47;11114658;26;20015;-92
2024/04/23 20:17:42;;;;;;;42.90;6.75;;;;;;;30.54;25.23;100209.25;11111601;26;20012;-93
2024/04/23 20:23:10;;;;;;;42.67;6.80;;;;;;;30.78;25.78;100234.66;11116854;26;20004;-92
2024/04/23 20:28:42;;;;;;;37.42;6.78;;;;;;;30.23;27.41;100231.59;11133470;26;19996;-96
2024/04/23 20:34:06;;;;;;;39.08;7.15;;;;;;;29.79;27.67;100197.59;11087363;26;20001;-96
2024/04/23 20:39:30;;;;;;;41.95;6.00;;;;;;;29.87;27.55;100219.66;11120810;26;20030;-96
2024/04/23 20:44:58;;;;;;;36.38;6.40;;;;;;;29.66;28.35;100237.56;11108704;26;20559;-93
2024/04/23 20:50:22;;;;;;;32.83;5.30;;;;;;;29.53;27.82;100253.03;11131465;26;19996;-92
2024/04/23 20:55:46;;;;;;;38.90;6.18;;;;;;;29.48;28.30;100236.16;11130945;26;19996;-93
2024/04/23 21:01:13;;;;;;;36.63;6.50;;;;;;;29.33;27.98;100219.06;11100293;26;20048;-94
2024/04/23 21:06:38;;;;;;;39.30;5.60;;;;;;;29.38;28.02;100226.91;11081805;26;20018;-91
2024/04/23 21:12:02;;;;;;;33.45;5.63;;;;;;;29.38;27.25;100245.97;11109080;26;20028;-91
2024/04/23 21:17:29;;;;;;;45.78;7.72;;;;;;;29.37;27.75;100242.38;11131741;26;20004;-93
2024/04/23 21:22:53;;;;;;;32.63;5.43;;;;;;;29.30;27.58;100235.56;11033559;26;20005;-91
2024/04/23 21:28:17;;;;;;;42.15;5.55;;;;;;;29.20;27.97;100239.94;11057818;26;20001;-94
2024/04/23 21:33:45;;;;;;;37.05;7.03;;;;;;;29.09;28.58;100248.81;11095092;26;20000;-90
2024/04/23 21:39:09;;;;;;;33.92;5.40;;;;;;;28.95;28.90;100272.53;11106149;26;20739;-91
2024/04/23 21:44:33;;;;;;;34.13;5.45;;;;;;;28.83;29.51;100291.38;11083963;26;20448;-93
2024/04/23 21:50:01;;;;;;;30.38;5.43;;;;;;;28.66;29.73;100272.59;11099848;26;20081;-94
2024/04/23 21:55:24;;;;;;;;;;;;;;;28.55;30.93;100248.84;11094888;26;20059;-93
2024/04/23 22:00:49;;;;;;;27.90;5.78;;;;;;;28.35;31.13;100262.03;11086922;26;19925;-96
2024/04/23 22:06:16;;;;;;;39.20;5.38;;;;;;;28.20;31.95;100258.47;11106164;26;20441;-94
2024/04/23 22:11:40;;;;;;;24.98;4.60;;;;;;;28.05;32.54;100237.72;11133038;26;20432;-94
2024/04/23 22:17:05;;;;;;;26.10;4.53;;;;;;;27.91;33.11;100235.91;11131532;26;20000;-95
2024/04/23 22:22:32;;;;;;;41.17;5.28;;;;;;;27.76;33.77;100237.75;11132726;26;20008;-95
2024/04/23 22:27:57;;;;;;;30.00;5.57;;;;;;;27.63;34.28;100228.69;11136349;26;20015;-95
2024/04/23 22:33:21;;;;;;;26.30;5.22;;;;;;;27.46;35.16;100198.97;11139507;26;20592;-95
2024/04/23 22:38:48;;;;;;;19.83;3.67;;;;;;;27.26;35.91;100177.69;11138826;26;20001;-95
2024/04/23 22:44:13;;;;;;;26.52;3.83;;;;;;;27.25;36.04;100197.63;11123243;26;20469;-95
2024/04/23 22:49:37;;;;;;;28.50;5.28;;;;;;;27.13;36.76;100169.44;11130371;26;20006;-95
2024/04/23 22:55:04;;;;;;;20.85;3.90;;;;;;;26.98;37.50;100179.38;11127348;26;20000;-94
2024/04/23 23:00:28;;;;;;;28.77;4.47;;;;;;;26.85;38.20;100188.31;11130116;26;20004;-94
2024/04/23 23:05:53;;;;;;;27.75;4.32;;;;;;;26.64;39.15;100174.25;11131757;26;20004;-92
2024/04/23 23:11:19;;;;;;;21.38;4.25;;;;;;;26.55;39.49;100163.97;11126053;26;20073;-94
2024/04/23 23:16:44;;;;;;;28.60;5.23;;;;;;;26.41;40.01;100110.66;11138833;26;20003;-93
2024/04/23 23:22:08;;;;;;;24.45;5.35;;;;;;;26.42;39.93;100153.00;11137732;26;20234;-93
2024/04/23 23:27:35;;;;;;;23.77;5.45;;;;;;;26.47;39.95;100125.66;11129067;26;20008;-94
2024/04/23 23:32:59;;;;;;;21.67;4.75;;;;;;;26.42;40.38;100098.84;11137046;26;20407;-94
2024/04/23 23:38:23;;;;;;;32.08;5.15;;;;;;;26.29;40.90;100096.97;11135151;26;20000;-92
2024/04/23 23:44:01;;;;;;;27.90;4.95;;;;;;;26.24;41.33;100110.78;11134477;26;20000;-94
2024/04/23 23:49:26;;;;;;;29.52;5.03;;;;;;;26.23;41.24;100105.44;11108832;26;20008;-95
2024/04/23 23:54:50;;;;;;;29.13;6.13;;;;;;;26.14;41.73;100104.13;11134929;26;20001;-95
